sensor_id;sensor_type;location;lat;lon;timestamp;temperature;humidity
38118;DHT22;23928;47.562;7.508;2023-02-01T00:01:39;3.50;99.90
38118;DHT22;23928;47.562;7.508;2023-02-01T00:04:05;3.60;99.90
38118;DHT22;23928;47.562;7.508;2023-02-01T00:06:31;3.90;99.90
38118;DHT22;23928;47.562;7.508;2023-02-01T00:08:56;3.90;99.90
38118;DHT22;23928;47.562;7.508;2023-02-01T00:11:23;4.00;99.90
38118;DHT22;23928;47.562;7.508;2023-02-01T00:13:49;4.10;99.90
38118;DHT22;23928;47.562;7.508;2023-02-01T00:16:17;4.00;99.90
38118;DHT22;23928;47.562;7.508;2023-02-01T00:18:48;4.10;99.90
38118;DHT22;23928;47.562;7.508;2023-02-01T00:21:16;4.00;99.90
38118;DHT22;23928;47.562;7.508;2023-02-01T00:23:42;4.00;99.90
38118;DHT22;23928;47.562;7.508;2023-02-01T00:26:19;4.00;99.90
38118;DHT22;23928;47.562;7.508;2023-02-01T00:28:45;4.00;99.90
38118;DHT22;23928;47.562;7.508;2023-02-01T00:31:11;4.00;99.90
38118;DHT22;23928;47.562;7.508;2023-02-01T00:33:36;3.90;99.90
38118;DHT22;23928;47.562;7.508;2023-02-01T00:36:07;4.00;99.90
38118;DHT22;23928;47.562;7.508;2023-02-01T00:38:35;3.90;99.90
38118;DHT22;23928;47.562;7.508;2023-02-01T00:41:07;3.90;99.90
38118;DHT22;23928;47.562;7.508;2023-02-01T00:43:34;3.80;99.90
38118;DHT22;23928;47.562;7.508;2023-02-01T00:46:00;3.80;99.90
38118;DHT22;23928;47.562;7.508;2023-02-01T00:48:26;3.90;99.90
38118;DHT22;23928;47.562;7.508;2023-02-01T00:50:52;3.90;99.90
38118;DHT22;23928;47.562;7.508;2023-02-01T00:53:17;3.90;99.90
38118;DHT22;23928;47.562;7.508;2023-02-01T00:55:47;3.90;99.90
38118;DHT22;23928;47.562;7.508;2023-02-01T00:58:13;3.70;99.90
38118;DHT22;23928;47.562;7.508;2023-02-01T01:00:39;3.70;99.90
38118;DHT22;23928;47.562;7.508;2023-02-01T01:03:04;3.70;99.90
38118;DHT22;23928;47.562;7.508;2023-02-01T01:05:46;3.70;99.90
38118;DHT22;23928;47.562;7.508;2023-02-01T01:08:12;3.60;99.90
38118;DHT22;23928;47.562;7.508;2023-02-01T01:10:38;3.60;99.90
38118;DHT22;23928;47.562;7.508;2023-02-01T01:13:04;3.60;99.90
38118;DHT22;23928;47.562;7.508;2023-02-01T01:15:30;3.60;99.90
38118;DHT22;23928;47.562;7.508;2023-02-01T01:17:55;3.60;99.90
38118;DHT22;23928;47.562;7.508;2023-02-01T01:20:21;3.50;99.90
38118;DHT22;23928;47.562;7.508;2023-02-01T01:22:47;3.50;99.90
38118;DHT22;23928;47.562;7.508;2023-02-01T01:25:13;3.50;99.90
38118;DHT22;23928;47.562;7.508;2023-02-01T01:27:39;3.60;99.90
38118;DHT22;23928;47.562;7.508;2023-02-01T01:30:05;3.50;99.90
38118;DHT22;23928;47.562;7.508;2023-02-01T01:32:31;3.50;99.90
38118;DHT22;23928;47.562;7.508;2023-02-01T01:34:57;3.50;99.90
38118;DHT22;23928;47.562;7.508;2023-02-01T01:37:22;3.50;99.90
38118;DHT22;23928;47.562;7.508;2023-02-01T01:39:48;3.50;99.90
38118;DHT22;23928;47.562;7.508;2023-02-01T01:42:13;3.50;99.90
38118;DHT22;23928;47.562;7.508;2023-02-01T01:45:06;3.40;99.90
38118;DHT22;23928;47.562;7.508;2023-02-01T01:47:44;3.50;99.90
38118;DHT22;23928;47.562;7.508;2023-02-01T01:50:16;3.40;99.90
38118;DHT22;23928;47.562;7.508;2023-02-01T01:52:44;3.40;99.90
38118;DHT22;23928;47.562;7.508;2023-02-01T01:55:13;3.40;99.90
38118;DHT22;23928;47.562;7.508;2023-02-01T01:57:42;3.40;99.90
38118;DHT22;23928;47.562;7.508;2023-02-01T02:00:11;3.40;99.90
38118;DHT22;23928;47.562;7.508;2023-02-01T02:02:38;3.40;99.90
38118;DHT22;23928;47.562;7.508;2023-02-01T02:05:06;3.50;99.90
38118;DHT22;23928;47.562;7.508;2023-02-01T02:07:36;3.40;99.90
38118;DHT22;23928;47.562;7.508;2023-02-01T02:10:08;3.10;99.90
38118;DHT22;23928;47.562;7.508;2023-02-01T02:12:38;3.20;99.90
38118;DHT22;23928;47.562;7.508;2023-02-01T02:15:06;3.30;99.90
38118;DHT22;23928;47.562;7.508;2023-02-01T02:20:52;3.20;99.90
38118;DHT22;23928;47.562;7.508;2023-02-01T02:23:51;3.10;99.90
38118;DHT22;23928;47.562;7.508;2023-02-01T02:29:36;3.30;99.90
38118;DHT22;23928;47.562;7.508;2023-02-01T02:34:57;3.50;99.90
38118;DHT22;23928;47.562;7.508;2023-02-01T02:37:42;3.60;99.90
38118;DHT22;23928;47.562;7.508;2023-02-01T02:40:18;3.50;99.90
38118;DHT22;23928;47.562;7.508;2023-02-01T02:43:06;3.60;99.90
38118;DHT22;23928;47.562;7.508;2023-02-01T02:46:00;3.40;99.90
38118;DHT22;23928;47.562;7.508;2023-02-01T02:49:23;3.40;99.90
38118;DHT22;23928;47.562;7.508;2023-02-01T02:51:55;3.20;99.90
38118;DHT22;23928;47.562;7.508;2023-02-01T02:54:45;3.20;99.90
38118;DHT22;23928;47.562;7.508;2023-02-01T02:57:22;3.20;99.90
38118;DHT22;23928;47.562;7.508;2023-02-01T03:00:12;3.10;99.90
38118;DHT22;23928;47.562;7.508;2023-02-01T03:02:58;2.90;99.90
38118;DHT22;23928;47.562;7.508;2023-02-01T03:05:45;2.90;99.90
38118;DHT22;23928;47.562;7.508;2023-02-01T03:08:27;2.60;99.90
38118;DHT22;23928;47.562;7.508;2023-02-01T03:11:10;2.60;99.90
38118;DHT22;23928;47.562;7.508;2023-02-01T03:13:54;2.60;99.90
38118;DHT22;23928;47.562;7.508;2023-02-01T03:16:26;2.60;99.90
38118;DHT22;23928;47.562;7.508;2023-02-01T03:19:01;2.60;99.90
38118;DHT22;23928;47.562;7.508;2023-02-01T03:21:34;2.40;99.90
38118;DHT22;23928;47.562;7.508;2023-02-01T03:24:06;2.50;99.90
38118;DHT22;23928;47.562;7.508;2023-02-01T03:26:36;2.50;99.90
38118;DHT22;23928;47.562;7.508;2023-02-01T03:29:20;2.50;99.90
38118;DHT22;23928;47.562;7.508;2023-02-01T03:31:47;2.50;99.90
38118;DHT22;23928;47.562;7.508;2023-02-01T03:34:13;2.50;99.90
38118;DHT22;23928;47.562;7.508;2023-02-01T03:36:49;2.50;99.90
38118;DHT22;23928;47.562;7.508;2023-02-01T03:39:27;2.40;99.90
38118;DHT22;23928;47.562;7.508;2023-02-01T03:41:57;2.50;99.90
38118;DHT22;23928;47.562;7.508;2023-02-01T03:44:34;2.50;99.90
38118;DHT22;23928;47.562;7.508;2023-02-01T03:47:14;2.50;99.90
38118;DHT22;23928;47.562;7.508;2023-02-01T03:49:44;2.50;99.90
38118;DHT22;23928;47.562;7.508;2023-02-01T03:52:15;2.50;99.90
38118;DHT22;23928;47.562;7.508;2023-02-01T03:54:42;2.50;99.90
38118;DHT22;23928;47.562;7.508;2023-02-01T03:57:13;2.50;99.90
38118;DHT22;23928;47.562;7.508;2023-02-01T03:59:40;2.60;99.90
38118;DHT22;23928;47.562;7.508;2023-02-01T04:02:06;2.60;99.90
38118;DHT22;23928;47.562;7.508;2023-02-01T04:04:33;2.60;99.90
38118;DHT22;23928;47.562;7.508;2023-02-01T04:06:59;2.80;99.90
38118;DHT22;23928;47.562;7.508;2023-02-01T04:09:25;2.70;99.90
38118;DHT22;23928;47.562;7.508;2023-02-01T04:11:51;2.70;99.90
38118;DHT22;23928;47.562;7.508;2023-02-01T04:14:16;2.60;99.90
38118;DHT22;23928;47.562;7.508;2023-02-01T04:16:42;2.50;99.90
38118;DHT22;23928;47.562;7.508;2023-02-01T04:19:08;2.50;99.90
38118;DHT22;23928;47.562;7.508;2023-02-01T04:21:33;2.60;99.90
38118;DHT22;23928;47.562;7.508;2023-02-01T04:23:59;2.60;99.90
38118;DHT22;23928;47.562;7.508;2023-02-01T04:26:25;2.80;99.90
38118;DHT22;23928;47.562;7.508;2023-02-01T04:28:51;2.90;99.90
38118;DHT22;23928;47.562;7.508;2023-02-01T04:31:18;2.90;99.90
38118;DHT22;23928;47.562;7.508;2023-02-01T04:33:51;3.00;99.90
38118;DHT22;23928;47.562;7.508;2023-02-01T04:36:18;2.90;99.90
38118;DHT22;23928;47.562;7.508;2023-02-01T04:38:46;3.00;99.90
38118;DHT22;23928;47.562;7.508;2023-02-01T04:41:12;3.20;99.90
38118;DHT22;23928;47.562;7.508;2023-02-01T04:43:38;3.00;99.90
38118;DHT22;23928;47.562;7.508;2023-02-01T04:46:03;3.20;99.90
38118;DHT22;23928;47.562;7.508;2023-02-01T04:48:30;3.10;99.90
38118;DHT22;23928;47.562;7.508;2023-02-01T04:50:56;3.10;99.90
38118;DHT22;23928;47.562;7.508;2023-02-01T04:53:21;3.10;99.90
38118;DHT22;23928;47.562;7.508;2023-02-01T04:55:48;3.20;99.90
38118;DHT22;23928;47.562;7.508;2023-02-01T04:58:14;3.20;99.90
38118;DHT22;23928;47.562;7.508;2023-02-01T05:00:40;3.10;99.90
38118;DHT22;23928;47.562;7.508;2023-02-01T05:03:06;3.10;99.90
38118;DHT22;23928;47.562;7.508;2023-02-01T05:05:31;2.80;99.90
38118;DHT22;23928;47.562;7.508;2023-02-01T05:07:57;2.70;99.90
38118;DHT22;23928;47.562;7.508;2023-02-01T05:10:22;2.60;99.90
38118;DHT22;23928;47.562;7.508;2023-02-01T05:12:48;2.50;99.90
38118;DHT22;23928;47.562;7.508;2023-02-01T05:15:32;2.50;99.90
38118;DHT22;23928;47.562;7.508;2023-02-01T05:17:58;2.50;99.90
38118;DHT22;23928;47.562;7.508;2023-02-01T05:20:24;2.50;99.90
38118;DHT22;23928;47.562;7.508;2023-02-01T05:22:50;2.60;99.90
38118;DHT22;23928;47.562;7.508;2023-02-01T05:25:16;2.60;99.90
38118;DHT22;23928;47.562;7.508;2023-02-01T05:27:41;2.70;99.90
38118;DHT22;23928;47.562;7.508;2023-02-01T05:30:08;2.80;99.90
38118;DHT22;23928;47.562;7.508;2023-02-01T05:32:34;2.70;99.90
38118;DHT22;23928;47.562;7.508;2023-02-01T05:34:59;2.80;99.90
38118;DHT22;23928;47.562;7.508;2023-02-01T05:37:25;2.90;99.90
38118;DHT22;23928;47.562;7.508;2023-02-01T05:39:51;2.90;99.90
38118;DHT22;23928;47.562;7.508;2023-02-01T05:42:17;2.90;99.90
38118;DHT22;23928;47.562;7.508;2023-02-01T05:44:42;3.00;99.90
38118;DHT22;23928;47.562;7.508;2023-02-01T05:47:08;3.00;99.90
38118;DHT22;23928;47.562;7.508;2023-02-01T05:49:33;2.90;99.90
38118;DHT22;23928;47.562;7.508;2023-02-01T05:51:59;2.90;99.90
38118;DHT22;23928;47.562;7.508;2023-02-01T05:54:25;3.10;99.90
38118;DHT22;23928;47.562;7.508;2023-02-01T05:56:50;2.70;99.90
38118;DHT22;23928;47.562;7.508;2023-02-01T05:59:17;2.70;99.90
38118;DHT22;23928;47.562;7.508;2023-02-01T06:01:42;2.80;99.90
38118;DHT22;23928;47.562;7.508;2023-02-01T06:04:08;2.50;99.90
38118;DHT22;23928;47.562;7.508;2023-02-01T06:06:33;2.60;99.90
38118;DHT22;23928;47.562;7.508;2023-02-01T06:08:59;2.80;99.90
38118;DHT22;23928;47.562;7.508;2023-02-01T06:11:26;2.90;99.90
38118;DHT22;23928;47.562;7.508;2023-02-01T06:13:52;2.90;99.90
38118;DHT22;23928;47.562;7.508;2023-02-01T06:16:17;3.00;99.90
38118;DHT22;23928;47.562;7.508;2023-02-01T06:18:43;3.10;99.90
38118;DHT22;23928;47.562;7.508;2023-02-01T06:21:09;3.10;99.90
38118;DHT22;23928;47.562;7.508;2023-02-01T06:23:34;3.00;99.90
38118;DHT22;23928;47.562;7.508;2023-02-01T06:26:05;3.10;99.90
38118;DHT22;23928;47.562;7.508;2023-02-01T06:28:32;3.10;99.90
38118;DHT22;23928;47.562;7.508;2023-02-01T06:30:57;3.10;99.90
38118;DHT22;23928;47.562;7.508;2023-02-01T06:33:24;3.10;99.90
38118;DHT22;23928;47.562;7.508;2023-02-01T06:35:57;3.30;99.90
38118;DHT22;23928;47.562;7.508;2023-02-01T06:38:23;3.10;99.90
38118;DHT22;23928;47.562;7.508;2023-02-01T06:40:53;3.20;99.90
38118;DHT22;23928;47.562;7.508;2023-02-01T06:43:19;3.20;99.90
38118;DHT22;23928;47.562;7.508;2023-02-01T06:45:44;3.10;99.90
38118;DHT22;23928;47.562;7.508;2023-02-01T06:48:10;3.00;99.90
38118;DHT22;23928;47.562;7.508;2023-02-01T06:50:35;3.10;99.90
38118;DHT22;23928;47.562;7.508;2023-02-01T06:53:01;3.30;99.90
38118;DHT22;23928;47.562;7.508;2023-02-01T06:55:26;3.20;99.90
38118;DHT22;23928;47.562;7.508;2023-02-01T06:57:55;3.20;99.90
38118;DHT22;23928;47.562;7.508;2023-02-01T07:00:24;3.40;99.90
38118;DHT22;23928;47.562;7.508;2023-02-01T07:02:50;3.40;99.90
38118;DHT22;23928;47.562;7.508;2023-02-01T07:05:16;3.30;99.90
38118;DHT22;23928;47.562;7.508;2023-02-01T07:07:42;3.30;99.90
38118;DHT22;23928;47.562;7.508;2023-02-01T07:10:08;3.30;99.90
38118;DHT22;23928;47.562;7.508;2023-02-01T07:12:34;3.40;99.90
38118;DHT22;23928;47.562;7.508;2023-02-01T07:15:01;3.40;99.90
38118;DHT22;23928;47.562;7.508;2023-02-01T07:17:27;3.40;99.90
38118;DHT22;23928;47.562;7.508;2023-02-01T07:19:55;3.30;99.90
38118;DHT22;23928;47.562;7.508;2023-02-01T07:22:21;3.40;99.90
38118;DHT22;23928;47.562;7.508;2023-02-01T07:24:46;3.70;99.90
38118;DHT22;23928;47.562;7.508;2023-02-01T07:27:12;3.90;99.90
38118;DHT22;23928;47.562;7.508;2023-02-01T07:29:38;3.80;99.90
38118;DHT22;23928;47.562;7.508;2023-02-01T07:32:03;4.00;99.90
38118;DHT22;23928;47.562;7.508;2023-02-01T07:34:29;4.00;99.90
38118;DHT22;23928;47.562;7.508;2023-02-01T07:36:56;4.10;99.90
38118;DHT22;23928;47.562;7.508;2023-02-01T07:39:22;4.10;99.90
38118;DHT22;23928;47.562;7.508;2023-02-01T07:41:48;4.20;99.90
38118;DHT22;23928;47.562;7.508;2023-02-01T07:44:13;4.30;99.90
38118;DHT22;23928;47.562;7.508;2023-02-01T07:46:39;4.30;99.90
38118;DHT22;23928;47.562;7.508;2023-02-01T07:49:08;4.40;99.90
38118;DHT22;23928;47.562;7.508;2023-02-01T07:51:34;4.40;99.90
38118;DHT22;23928;47.562;7.508;2023-02-01T07:53:59;4.40;99.90
38118;DHT22;23928;47.562;7.508;2023-02-01T07:56:25;4.50;99.90
38118;DHT22;23928;47.562;7.508;2023-02-01T07:58:52;4.50;99.90
38118;DHT22;23928;47.562;7.508;2023-02-01T08:01:23;4.60;99.90
38118;DHT22;23928;47.562;7.508;2023-02-01T08:04:00;4.50;99.90
38118;DHT22;23928;47.562;7.508;2023-02-01T08:06:28;4.60;99.90
38118;DHT22;23928;47.562;7.508;2023-02-01T08:08:54;4.70;99.90
38118;DHT22;23928;47.562;7.508;2023-02-01T08:11:21;4.70;99.90
38118;DHT22;23928;47.562;7.508;2023-02-01T08:13:47;4.80;99.90
38118;DHT22;23928;47.562;7.508;2023-02-01T08:16:15;4.70;99.90
38118;DHT22;23928;47.562;7.508;2023-02-01T08:18:41;4.80;99.90
38118;DHT22;23928;47.562;7.508;2023-02-01T08:21:11;4.70;99.90
38118;DHT22;23928;47.562;7.508;2023-02-01T08:23:39;4.80;99.90
38118;DHT22;23928;47.562;7.508;2023-02-01T08:26:13;4.80;99.90
38118;DHT22;23928;47.562;7.508;2023-02-01T08:28:44;4.80;99.90
38118;DHT22;23928;47.562;7.508;2023-02-01T08:31:15;4.90;99.90
38118;DHT22;23928;47.562;7.508;2023-02-01T08:33:43;4.90;99.90
38118;DHT22;23928;47.562;7.508;2023-02-01T08:36:09;5.00;99.90
38118;DHT22;23928;47.562;7.508;2023-02-01T08:38:36;5.20;99.90
38118;DHT22;23928;47.562;7.508;2023-02-01T08:41:14;5.30;99.90
38118;DHT22;23928;47.562;7.508;2023-02-01T08:43:40;5.30;99.90
38118;DHT22;23928;47.562;7.508;2023-02-01T08:46:07;5.30;99.90
38118;DHT22;23928;47.562;7.508;2023-02-01T08:48:33;5.30;99.90
38118;DHT22;23928;47.562;7.508;2023-02-01T08:51:11;5.30;99.90
38118;DHT22;23928;47.562;7.508;2023-02-01T08:53:37;5.30;99.90
38118;DHT22;23928;47.562;7.508;2023-02-01T08:56:04;5.40;99.90
38118;DHT22;23928;47.562;7.508;2023-02-01T08:58:29;5.40;99.90
38118;DHT22;23928;47.562;7.508;2023-02-01T09:00:55;5.60;99.90
38118;DHT22;23928;47.562;7.508;2023-02-01T09:03:20;5.80;99.90
38118;DHT22;23928;47.562;7.508;2023-02-01T09:05:47;5.80;99.90
38118;DHT22;23928;47.562;7.508;2023-02-01T09:08:13;6.00;99.90
38118;DHT22;23928;47.562;7.508;2023-02-01T09:10:40;6.20;99.90
38118;DHT22;23928;47.562;7.508;2023-02-01T09:13:07;6.20;99.90
38118;DHT22;23928;47.562;7.508;2023-02-01T09:15:33;6.20;99.90
38118;DHT22;23928;47.562;7.508;2023-02-01T09:17:59;6.20;99.90
38118;DHT22;23928;47.562;7.508;2023-02-01T09:20:25;6.30;99.90
38118;DHT22;23928;47.562;7.508;2023-02-01T09:22:55;6.30;99.90
38118;DHT22;23928;47.562;7.508;2023-02-01T09:25:20;6.30;99.90
38118;DHT22;23928;47.562;7.508;2023-02-01T09:27:46;6.30;99.90
38118;DHT22;23928;47.562;7.508;2023-02-01T09:30:12;6.20;99.90
38118;DHT22;23928;47.562;7.508;2023-02-01T09:32:38;6.20;99.90
38118;DHT22;23928;47.562;7.508;2023-02-01T09:35:03;6.30;99.90
38118;DHT22;23928;47.562;7.508;2023-02-01T09:37:29;6.30;99.90
38118;DHT22;23928;47.562;7.508;2023-02-01T09:39:54;6.20;99.90
38118;DHT22;23928;47.562;7.508;2023-02-01T09:47:58;6.50;99.90
38118;DHT22;23928;47.562;7.508;2023-02-01T09:50:34;6.60;99.90
38118;DHT22;23928;47.562;7.508;2023-02-01T09:53:12;6.50;99.90
38118;DHT22;23928;47.562;7.508;2023-02-01T09:55:42;6.50;99.90
38118;DHT22;23928;47.562;7.508;2023-02-01T09:58:14;6.40;99.90
38118;DHT22;23928;47.562;7.508;2023-02-01T10:00:52;6.30;99.90
38118;DHT22;23928;47.562;7.508;2023-02-01T10:03:18;6.40;99.90
38118;DHT22;23928;47.562;7.508;2023-02-01T10:06:09;6.30;99.90
38118;DHT22;23928;47.562;7.508;2023-02-01T10:09:44;6.40;99.90
38118;DHT22;23928;47.562;7.508;2023-02-01T10:21:52;6.30;99.90
38118;DHT22;23928;47.562;7.508;2023-02-01T10:26:34;6.30;99.90
38118;DHT22;23928;47.562;7.508;2023-02-01T10:29:04;6.50;99.90
38118;DHT22;23928;47.562;7.508;2023-02-01T10:31:33;6.60;99.90
38118;DHT22;23928;47.562;7.508;2023-02-01T10:34:07;6.80;99.90
38118;DHT22;23928;47.562;7.508;2023-02-01T10:37:09;7.10;99.90
38118;DHT22;23928;47.562;7.508;2023-02-01T10:39:39;7.30;99.90
38118;DHT22;23928;47.562;7.508;2023-02-01T10:42:05;7.10;99.90
38118;DHT22;23928;47.562;7.508;2023-02-01T10:44:31;7.30;99.90
38118;DHT22;23928;47.562;7.508;2023-02-01T10:47:00;7.20;99.90
38118;DHT22;23928;47.562;7.508;2023-02-01T10:49:38;7.20;99.90
38118;DHT22;23928;47.562;7.508;2023-02-01T10:52:12;7.10;99.90
38118;DHT22;23928;47.562;7.508;2023-02-01T10:54:40;7.10;99.90
38118;DHT22;23928;47.562;7.508;2023-02-01T10:57:21;7.00;99.90
38118;DHT22;23928;47.562;7.508;2023-02-01T10:59:49;7.00;99.90
38118;DHT22;23928;47.562;7.508;2023-02-01T11:02:27;6.70;99.90
38118;DHT22;23928;47.562;7.508;2023-02-01T11:05:09;6.60;99.90
38118;DHT22;23928;47.562;7.508;2023-02-01T11:07:39;6.50;99.90
38118;DHT22;23928;47.562;7.508;2023-02-01T11:10:05;6.40;99.90
38118;DHT22;23928;47.562;7.508;2023-02-01T11:12:36;6.30;99.90
38118;DHT22;23928;47.562;7.508;2023-02-01T11:17:42;6.30;99.90
38118;DHT22;23928;47.562;7.508;2023-02-01T11:20:35;6.40;99.90
38118;DHT22;23928;47.562;7.508;2023-02-01T11:23:03;6.30;99.90
38118;DHT22;23928;47.562;7.508;2023-02-01T11:25:29;6.40;99.90
38118;DHT22;23928;47.562;7.508;2023-02-01T11:27:56;6.40;99.90
38118;DHT22;23928;47.562;7.508;2023-02-01T11:30:34;6.50;99.90
38118;DHT22;23928;47.562;7.508;2023-02-01T11:33:03;6.60;99.90
38118;DHT22;23928;47.562;7.508;2023-02-01T11:35:31;6.60;99.90
38118;DHT22;23928;47.562;7.508;2023-02-01T11:37:58;6.60;99.90
38118;DHT22;23928;47.562;7.508;2023-02-01T11:40:35;6.60;99.90
38118;DHT22;23928;47.562;7.508;2023-02-01T11:43:24;6.70;99.90
38118;DHT22;23928;47.562;7.508;2023-02-01T11:46:02;6.70;99.90
38118;DHT22;23928;47.562;7.508;2023-02-01T11:48:31;6.80;99.90
38118;DHT22;23928;47.562;7.508;2023-02-01T11:56:42;6.70;99.90
38118;DHT22;23928;47.562;7.508;2023-02-01T12:21:10;7.10;99.90
38118;DHT22;23928;47.562;7.508;2023-02-01T12:27:07;7.00;99.90
38118;DHT22;23928;47.562;7.508;2023-02-01T12:32:36;7.20;99.90
38118;DHT22;23928;47.562;7.508;2023-02-01T12:35:33;7.20;99.90
38118;DHT22;23928;47.562;7.508;2023-02-01T12:46:31;6.90;99.90
38118;DHT22;23928;47.562;7.508;2023-02-01T12:51:42;7.10;99.90
38118;DHT22;23928;47.562;7.508;2023-02-01T12:59:36;6.90;99.90
38118;DHT22;23928;47.562;7.508;2023-02-01T13:15:40;6.70;99.90
38118;DHT22;23928;47.562;7.508;2023-02-01T13:18:14;6.60;99.90
38118;DHT22;23928;47.562;7.508;2023-02-01T13:21:01;6.60;99.90
38118;DHT22;23928;47.562;7.508;2023-02-01T13:23:33;6.70;99.90
38118;DHT22;23928;47.562;7.508;2023-02-01T13:26:00;6.70;99.90
38118;DHT22;23928;47.562;7.508;2023-02-01T13:28:28;6.70;99.90
38118;DHT22;23928;47.562;7.508;2023-02-01T13:39:41;6.70;99.90
38118;DHT22;23928;47.562;7.508;2023-02-01T13:42:22;6.80;99.90
38118;DHT22;23928;47.562;7.508;2023-02-01T13:45:00;6.80;99.90
38118;DHT22;23928;47.562;7.508;2023-02-01T13:47:39;6.80;99.90
38118;DHT22;23928;47.562;7.508;2023-02-01T13:50:32;6.80;99.90
38118;DHT22;23928;47.562;7.508;2023-02-01T13:53:11;6.90;99.90
38118;DHT22;23928;47.562;7.508;2023-02-01T13:55:44;6.90;99.90
38118;DHT22;23928;47.562;7.508;2023-02-01T13:58:47;6.90;99.90
38118;DHT22;23928;47.562;7.508;2023-02-01T14:16:41;6.60;99.90
38118;DHT22;23928;47.562;7.508;2023-02-01T14:21:52;6.70;99.90
38118;DHT22;23928;47.562;7.508;2023-02-01T14:24:34;6.60;99.90
38118;DHT22;23928;47.562;7.508;2023-02-01T14:29:40;6.60;99.90
38118;DHT22;23928;47.562;7.508;2023-02-01T14:32:17;6.50;99.90
38118;DHT22;23928;47.562;7.508;2023-02-01T14:55:58;6.20;99.90
38118;DHT22;23928;47.562;7.508;2023-02-01T14:58:35;6.30;99.90
38118;DHT22;23928;47.562;7.508;2023-02-01T15:03:49;6.20;99.90
38118;DHT22;23928;47.562;7.508;2023-02-01T15:06:26;6.30;99.90
38118;DHT22;23928;47.562;7.508;2023-02-01T15:08:56;6.40;99.90
38118;DHT22;23928;47.562;7.508;2023-02-01T15:11:23;6.40;99.90
38118;DHT22;23928;47.562;7.508;2023-02-01T15:13:51;6.50;99.90
38118;DHT22;23928;47.562;7.508;2023-02-01T15:16:20;6.50;99.90
38118;DHT22;23928;47.562;7.508;2023-02-01T15:18:47;6.40;99.90
38118;DHT22;23928;47.562;7.508;2023-02-01T15:21:23;6.50;99.90
38118;DHT22;23928;47.562;7.508;2023-02-01T15:23:50;6.30;99.90
38118;DHT22;23928;47.562;7.508;2023-02-01T15:26:31;6.30;99.90
38118;DHT22;23928;47.562;7.508;2023-02-01T15:28:58;6.30;99.90
38118;DHT22;23928;47.562;7.508;2023-02-01T15:31:35;6.20;99.90
38118;DHT22;23928;47.562;7.508;2023-02-01T15:34:01;6.20;99.90
38118;DHT22;23928;47.562;7.508;2023-02-01T15:36:27;6.20;99.90
38118;DHT22;23928;47.562;7.508;2023-02-01T15:39:23;6.20;99.90
38118;DHT22;23928;47.562;7.508;2023-02-01T15:41:56;6.20;99.90
38118;DHT22;23928;47.562;7.508;2023-02-01T15:44:42;6.20;99.90
38118;DHT22;23928;47.562;7.508;2023-02-01T15:47:20;6.10;99.90
38118;DHT22;23928;47.562;7.508;2023-02-01T15:49:52;6.10;99.90
38118;DHT22;23928;47.562;7.508;2023-02-01T15:52:36;6.10;99.90
38118;DHT22;23928;47.562;7.508;2023-02-01T15:55:20;6.10;99.90
38118;DHT22;23928;47.562;7.508;2023-02-01T15:57:48;6.00;99.90
38118;DHT22;23928;47.562;7.508;2023-02-01T16:00:34;6.00;99.90
38118;DHT22;23928;47.562;7.508;2023-02-01T16:03:33;6.00;99.90
38118;DHT22;23928;47.562;7.508;2023-02-01T16:06:10;6.00;99.90
38118;DHT22;23928;47.562;7.508;2023-02-01T16:08:36;6.00;99.90
38118;DHT22;23928;47.562;7.508;2023-02-01T16:13:34;6.00;99.90
38118;DHT22;23928;47.562;7.508;2023-02-01T16:16:00;6.10;99.90
38118;DHT22;23928;47.562;7.508;2023-02-01T16:18:26;5.90;99.90
38118;DHT22;23928;47.562;7.508;2023-02-01T16:20:51;6.00;99.90
38118;DHT22;23928;47.562;7.508;2023-02-01T16:23:17;5.90;99.90
38118;DHT22;23928;47.562;7.508;2023-02-01T16:25:44;5.90;99.90
38118;DHT22;23928;47.562;7.508;2023-02-01T16:28:10;5.90;99.90
38118;DHT22;23928;47.562;7.508;2023-02-01T16:30:35;5.90;99.90
38118;DHT22;23928;47.562;7.508;2023-02-01T16:33:02;5.80;99.90
38118;DHT22;23928;47.562;7.508;2023-02-01T16:35:32;5.80;99.90
38118;DHT22;23928;47.562;7.508;2023-02-01T16:38:02;5.80;99.90
38118;DHT22;23928;47.562;7.508;2023-02-01T16:40:27;5.90;99.90
38118;DHT22;23928;47.562;7.508;2023-02-01T16:42:53;5.80;99.90
38118;DHT22;23928;47.562;7.508;2023-02-01T16:45:22;5.80;99.90
38118;DHT22;23928;47.562;7.508;2023-02-01T16:47:54;5.80;99.90
38118;DHT22;23928;47.562;7.508;2023-02-01T16:50:23;5.80;99.90
38118;DHT22;23928;47.562;7.508;2023-02-01T16:52:50;5.80;99.90
38118;DHT22;23928;47.562;7.508;2023-02-01T16:55:18;5.80;99.90
38118;DHT22;23928;47.562;7.508;2023-02-01T16:57:44;5.90;99.90
38118;DHT22;23928;47.562;7.508;2023-02-01T17:00:11;5.80;99.90
38118;DHT22;23928;47.562;7.508;2023-02-01T17:02:37;5.90;99.90
38118;DHT22;23928;47.562;7.508;2023-02-01T17:05:04;5.90;99.90
38118;DHT22;23928;47.562;7.508;2023-02-01T17:07:30;5.70;99.90
38118;DHT22;23928;47.562;7.508;2023-02-01T17:09:56;5.80;99.90
38118;DHT22;23928;47.562;7.508;2023-02-01T17:12:28;5.60;99.90
38118;DHT22;23928;47.562;7.508;2023-02-01T17:14:56;5.50;99.90
38118;DHT22;23928;47.562;7.508;2023-02-01T17:17:23;5.60;99.90
38118;DHT22;23928;47.562;7.508;2023-02-01T17:19:51;5.60;99.90
38118;DHT22;23928;47.562;7.508;2023-02-01T17:22:19;5.50;99.90
38118;DHT22;23928;47.562;7.508;2023-02-01T17:24:45;5.50;99.90
38118;DHT22;23928;47.562;7.508;2023-02-01T17:27:10;5.50;99.90
38118;DHT22;23928;47.562;7.508;2023-02-01T17:29:36;5.40;99.90
38118;DHT22;23928;47.562;7.508;2023-02-01T17:32:02;5.40;99.90
38118;DHT22;23928;47.562;7.508;2023-02-01T17:34:28;5.40;99.90
38118;DHT22;23928;47.562;7.508;2023-02-01T17:36:54;5.40;99.90
38118;DHT22;23928;47.562;7.508;2023-02-01T17:39:20;5.40;99.90
38118;DHT22;23928;47.562;7.508;2023-02-01T17:42:05;5.50;99.90
38118;DHT22;23928;47.562;7.508;2023-02-01T17:44:31;5.40;99.90
38118;DHT22;23928;47.562;7.508;2023-02-01T17:46:57;5.40;99.90
38118;DHT22;23928;47.562;7.508;2023-02-01T17:49:24;5.40;99.90
38118;DHT22;23928;47.562;7.508;2023-02-01T17:51:50;5.40;99.90
38118;DHT22;23928;47.562;7.508;2023-02-01T17:54:16;5.40;99.90
38118;DHT22;23928;47.562;7.508;2023-02-01T17:56:44;5.40;99.90
38118;DHT22;23928;47.562;7.508;2023-02-01T17:59:10;5.40;99.90
38118;DHT22;23928;47.562;7.508;2023-02-01T18:01:36;5.40;99.90
38118;DHT22;23928;47.562;7.508;2023-02-01T18:04:02;5.40;99.90
38118;DHT22;23928;47.562;7.508;2023-02-01T18:06:32;5.40;99.90
38118;DHT22;23928;47.562;7.508;2023-02-01T18:08:58;5.30;99.90
38118;DHT22;23928;47.562;7.508;2023-02-01T18:11:24;5.40;99.90
38118;DHT22;23928;47.562;7.508;2023-02-01T18:13:51;5.40;99.90
38118;DHT22;23928;47.562;7.508;2023-02-01T18:18:49;5.50;99.90
38118;DHT22;23928;47.562;7.508;2023-02-01T18:21:16;5.40;99.90
38118;DHT22;23928;47.562;7.508;2023-02-01T18:23:42;5.40;99.90
38118;DHT22;23928;47.562;7.508;2023-02-01T18:26:12;5.50;99.90
38118;DHT22;23928;47.562;7.508;2023-02-01T18:28:38;5.40;99.90
38118;DHT22;23928;47.562;7.508;2023-02-01T18:31:04;5.40;99.90
38118;DHT22;23928;47.562;7.508;2023-02-01T18:33:30;5.40;99.90
38118;DHT22;23928;47.562;7.508;2023-02-01T18:35:56;5.40;99.90